Time;durP1;ratioP1;P1;durP2;ratioP2;P2;SDS_P1;SDS_P2;PMS_P1;PMS_P2;Temp;Humidity;BMP_temperature;BMP_pressure;BME280_temperature;BME280_humidity;BME280_pressure;Samples;Min_cycle;Max_cycle;Signal;HPM_P1;HPM_P2
2022/05/11 00:00:51;;;;;;;9.23;5.83;;;16.60;80.20;;;;;;4965393;28;20201;-80
2022/05/11 00:03:21;;;;;;;10.43;6.57;;;16.60;80.20;;;;;;4961960;28;20202;-80
2022/05/11 00:05:49;;;;;;;13.23;6.10;;;16.60;80.30;;;;;;4962544;28;20194;-79
2022/05/11 00:08:18;;;;;;;11.73;6.47;;;16.60;80.30;;;;;;4966009;28;20296;-80
2022/05/11 00:10:47;;;;;;;9.13;6.37;;;16.60;80.40;;;;;;4958889;28;20228;-79
2022/05/11 00:13:15;;;;;;;12.37;7.03;;;16.50;80.40;;;;;;4958910;28;20228;-80
2022/05/11 00:15:44;;;;;;;13.77;7.17;;;16.50;80.50;;;;;;4965591;28;20197;-80
2022/05/11 00:18:12;;;;;;;14.87;7.57;;;16.50;80.50;;;;;;4963377;28;20202;-80
2022/05/11 00:20:42;;;;;;;12.83;7.47;;;16.50;80.50;;;;;;4960706;28;20315;-80
2022/05/11 00:23:10;;;;;;;15.60;8.07;;;16.50;80.50;;;;;;4960559;28;20209;-81
2022/05/11 00:25:39;;;;;;;11.77;7.13;;;16.50;80.60;;;;;;4960281;28;21260;-80
2022/05/11 00:28:07;;;;;;;11.23;6.60;;;16.40;80.50;;;;;;4958411;28;20209;-79
2022/05/11 00:30:35;;;;;;;10.97;7.20;;;16.40;80.60;;;;;;4960191;28;20564;-80
2022/05/11 00:33:04;;;;;;;12.30;8.00;;;16.30;80.60;;;;;;4959760;28;20252;-80
2022/05/11 00:35:35;;;;;;;14.77;7.90;;;16.40;80.80;;;;;;4961393;28;20249;-79
2022/05/11 00:38:05;;;;;;;12.63;8.07;;;16.30;80.80;;;;;;4964675;28;20198;-79
2022/05/11 00:40:39;;;;;;;14.17;8.50;;;16.30;80.80;;;;;;4959194;28;20256;-80
2022/05/11 00:43:08;;;;;;;14.73;8.10;;;16.30;80.80;;;;;;4967208;28;20201;-80
2022/05/11 00:45:37;;;;;;;18.00;8.73;;;16.30;80.80;;;;;;4964113;28;20618;-83
2022/05/11 00:50:52;;;;;;;12.80;7.33;;;16.20;80.80;;;;;;4960582;28;20185;-80
2022/05/11 00:53:22;;;;;;;19.07;9.03;;;16.20;80.80;;;;;;4961072;28;20201;-80
2022/05/11 00:55:56;;;;;;;15.30;8.37;;;16.20;80.80;;;;;;4962221;28;20210;-80
2022/05/11 00:58:31;;;;;;;14.13;8.70;;;16.20;80.80;;;;;;4962536;28;20695;-79
2022/05/11 01:01:00;;;;;;;13.57;8.43;;;16.10;80.80;;;;;;4962007;28;20224;-80
2022/05/11 01:03:34;;;;;;;15.80;8.93;;;16.10;80.80;;;;;;4963920;28;20202;-80
2022/05/11 01:06:02;;;;;;;15.53;8.73;;;16.10;80.90;;;;;;4962523;28;20197;-79
2022/05/11 01:08:33;;;;;;;17.60;8.50;;;16.00;81.00;;;;;;4964312;28;20201;-79
2022/05/11 01:11:03;;;;;;;15.73;8.33;;;16.10;81.30;;;;;;4965074;28;20202;-79
2022/05/11 01:13:33;;;;;;;13.40;7.70;;;16.00;81.40;;;;;;4959617;28;20840;-80
2022/05/11 01:16:02;;;;;;;18.53;9.10;;;16.00;81.40;;;;;;4965423;28;20661;-80
2022/05/11 01:18:32;;;;;;;14.97;8.77;;;16.00;81.50;;;;;;4966910;28;20253;-80
2022/05/11 01:21:03;;;;;;;17.90;9.43;;;16.00;81.50;;;;;;4961308;28;20495;-79
2022/05/11 01:23:40;;;;;;;12.80;8.20;;;16.00;81.80;;;;;;4962980;28;20186;-81
2022/05/11 01:26:10;;;;;;;13.07;7.40;;;16.00;81.90;;;;;;4955653;28;20595;-79
2022/05/11 01:28:41;;;;;;;16.23;7.77;;;15.90;81.70;;;;;;4964084;28;20551;-80
2022/05/11 01:31:12;;;;;;;12.43;7.23;;;16.00;81.80;;;;;;4964915;28;20194;-79
2022/05/11 01:33:48;;;;;;;17.23;7.73;;;16.00;81.70;;;;;;4965129;28;20552;-78
2022/05/11 01:36:25;;;;;;;13.20;7.47;;;15.90;81.70;;;;;;4961592;28;20198;-80
2022/05/11 01:38:56;;;;;;;17.40;8.47;;;15.90;81.90;;;;;;4962671;28;20192;-79
2022/05/11 01:41:30;;;;;;;13.37;8.63;;;15.90;81.90;;;;;;4961747;28;20213;-79
2022/05/11 01:44:00;;;;;;;18.23;7.93;;;15.90;81.90;;;;;;4963104;28;20193;-80
2022/05/11 01:46:28;;;;;;;13.50;7.83;;;15.90;82.00;;;;;;4961696;28;20222;-80
2022/05/11 01:48:56;;;;;;;14.87;8.17;;;15.90;82.00;;;;;;4961542;28;20198;-79
2022/05/11 01:51:25;;;;;;;12.97;7.20;;;15.80;82.00;;;;;;4963697;28;20194;-80
2022/05/11 01:53:53;;;;;;;26.97;9.03;;;15.90;82.10;;;;;;4960791;28;20205;-79
2022/05/11 01:56:23;;;;;;;14.83;7.30;;;15.80;82.10;;;;;;4965032;28;20245;-80
2022/05/11 01:58:54;;;;;;;14.63;7.43;;;15.80;82.20;;;;;;4965348;28;20640;-80
2022/05/11 02:01:25;;;;;;;14.90;7.67;;;15.90;82.20;;;;;;4961162;28;20214;-80
2022/05/11 02:03:54;;;;;;;12.73;7.37;;;15.90;82.20;;;;;;4967010;28;20621;-81
2022/05/11 02:09:23;;;;;;;12.43;7.70;;;15.80;82.10;;;;;;4902174;29;20790;-80
2022/05/11 02:11:52;;;;;;;14.50;7.93;;;15.80;82.00;;;;;;4901819;29;20696;-79
2022/05/11 02:14:21;;;;;;;12.23;7.80;;;15.80;82.10;;;;;;4926236;28;20196;-80
2022/05/11 02:16:50;;;;;;;17.70;7.50;;;15.80;82.20;;;;;;4960248;28;20550;-80
2022/05/11 02:19:18;;;;;;;12.00;7.73;;;15.80;82.20;;;;;;4960863;28;20281;-80
2022/05/11 02:21:47;;;;;;;13.63;7.53;;;15.80;82.20;;;;;;4962363;28;20226;-79
2022/05/11 02:24:15;;;;;;;13.00;6.37;;;15.80;82.20;;;;;;4960786;28;20203;-80
2022/05/11 02:26:43;;;;;;;10.20;6.77;;;15.80;82.20;;;;;;4961246;28;20205;-80
2022/05/11 02:29:12;;;;;;;14.00;7.00;;;15.80;82.20;;;;;;4961387;28;20190;-81
2022/05/11 02:31:42;;;;;;;14.00;7.00;;;15.80;82.20;;;;;;4963542;28;20866;-80
2022/05/11 02:35:12;;;;;;;13.77;6.50;;;15.70;82.10;;;;;;4964367;28;20308;-80
2022/05/11 02:36:59;;;;;;;12.87;6.70;;;15.80;82.10;;;;;;4960890;28;20208;-79
2022/05/11 02:39:27;;;;;;;14.63;6.27;;;15.70;82.00;;;;;;4963953;28;20223;-79
2022/05/11 02:41:56;;;;;;;12.90;7.17;;;15.70;82.00;;;;;;4959107;28;20221;-79
2022/05/11 02:44:24;;;;;;;11.50;7.10;;;15.70;81.90;;;;;;4959748;28;20206;-79
2022/05/11 02:46:54;;;;;;;13.47;6.80;;;15.70;82.00;;;;;;4962011;28;20260;-80
2022/05/11 02:49:22;;;;;;;14.93;6.83;;;15.70;82.00;;;;;;4961889;28;20225;-79
2022/05/11 02:51:50;;;;;;;8.93;6.37;;;15.70;82.10;;;;;;4961981;28;20198;-80
2022/05/11 02:54:19;;;;;;;11.00;7.13;;;15.60;82.00;;;;;;4956708;28;20209;-80
2022/05/11 02:56:48;;;;;;;15.80;8.50;;;15.60;82.10;;;;;;4957057;28;20190;-79
2022/05/11 02:59:16;;;;;;;15.17;7.37;;;15.60;82.10;;;;;;4963140;28;20205;-80
2022/05/11 03:01:44;;;;;;;12.87;7.10;;;15.60;82.10;;;;;;4960793;28;20806;-79
2022/05/11 03:04:14;;;;;;;16.10;8.17;;;15.60;82.20;;;;;;4960916;28;20194;-80
2022/05/11 03:06:47;;;;;;;15.70;7.90;;;15.60;82.20;;;;;;4961613;28;20194;-80
2022/05/11 03:09:16;;;;;;;12.30;7.33;;;15.60;82.20;;;;;;4956171;28;20197;-79
2022/05/11 03:11:45;;;;;;;13.60;7.43;;;15.60;82.20;;;;;;4957229;28;20201;-79
2022/05/11 03:14:14;;;;;;;12.00;7.93;;;15.60;82.30;;;;;;4960119;28;20292;-80
2022/05/11 03:16:43;;;;;;;16.87;8.53;;;15.60;82.30;;;;;;4961295;28;20190;-81
2022/05/11 03:19:12;;;;;;;13.60;8.40;;;15.60;82.30;;;;;;4959492;28;20200;-80
2022/05/11 03:21:42;;;;;;;13.40;8.10;;;15.50;82.30;;;;;;4960656;28;20229;-80
2022/05/11 03:24:10;;;;;;;16.10;7.87;;;15.50;82.40;;;;;;4961063;28;20198;-81
2022/05/11 03:26:38;;;;;;;13.10;7.87;;;15.50;82.50;;;;;;4954802;28;20958;-80
2022/05/11 03:29:07;;;;;;;18.33;8.53;;;15.50;82.50;;;;;;4960256;28;20224;-80
2022/05/11 03:31:37;;;;;;;21.97;8.97;;;15.50;82.60;;;;;;4960676;28;20201;-80
2022/05/11 03:37:10;;;;;;;12.83;7.40;;;15.50;82.70;;;;;;4958536;28;21756;-80
2022/05/11 03:39:45;;;;;;;15.07;7.87;;;15.50;82.70;;;;;;4959305;28;20221;-80
2022/05/11 03:42:18;;;;;;;15.83;8.23;;;15.50;82.60;;;;;;4959648;28;20224;-80
2022/05/11 03:44:47;;;;;;;14.30;7.87;;;15.50;82.70;;;;;;4962131;28;20206;-80
2022/05/11 03:47:15;;;;;;;13.60;8.17;;;15.50;82.70;;;;;;4953151;28;20236;-79
2022/05/11 03:49:46;;;;;;;19.43;8.80;;;15.50;83.80;;;;;;4959253;28;20197;-80
2022/05/11 03:52:18;;;;;;;15.93;8.10;;;15.50;83.00;;;;;;4952383;28;20192;-80
2022/05/11 03:54:58;;;;;;;17.30;8.40;;;15.60;83.20;;;;;;4957931;28;20275;-80
2022/05/11 03:57:37;;;;;;;14.10;8.40;;;15.50;83.30;;;;;;4959057;28;20272;-80
2022/05/11 04:00:08;;;;;;;19.33;8.67;;;15.60;83.30;;;;;;4959655;28;20286;-80
2022/05/11 04:02:36;;;;;;;14.23;7.87;;;15.60;83.30;;;;;;4961951;28;20213;-80
2022/05/11 04:05:07;;;;;;;13.67;7.93;;;15.60;83.30;;;;;;4955443;28;20288;-80
2022/05/11 04:07:37;;;;;;;15.13;7.87;;;15.60;83.30;;;;;;4956585;28;20229;-80
2022/05/11 04:10:07;;;;;;;18.75;8.60;;;15.70;83.40;;;;;;4958171;28;20467;-80
2022/05/11 04:12:35;;;;;;;17.53;7.80;;;15.70;85.00;;;;;;4959158;28;20198;-79
2022/05/11 04:15:04;;;;;;;16.53;7.80;;;15.70;84.70;;;;;;4961522;28;20198;-80
2022/05/11 04:17:34;;;;;;;11.83;6.90;;;15.70;84.70;;;;;;4961001;28;20208;-80
2022/05/11 04:20:03;;;;;;;12.03;8.10;;;15.70;84.60;;;;;;4964756;28;20206;-79
2022/05/11 04:22:32;;;;;;;15.90;7.40;;;15.80;84.60;;;;;;4963680;28;20361;-80
2022/05/11 04:25:01;;;;;;;12.10;8.17;;;15.80;84.70;;;;;;4957562;28;20204;-79
2022/05/11 04:27:30;;;;;;;12.43;7.63;;;15.80;84.70;;;;;;4957817;28;20205;-80
2022/05/11 04:29:59;;;;;;;12.53;7.07;;;15.90;84.70;;;;;;4958396;28;20201;-79
2022/05/11 04:32:28;;;;;;;12.33;7.23;;;15.90;84.70;;;;;;4958232;28;20209;-79
2022/05/11 04:34:56;;;;;;;12.60;7.70;;;16.00;84.70;;;;;;4962022;28;20206;-80
2022/05/11 04:37:25;;;;;;;20.00;7.57;;;16.00;84.70;;;;;;4962067;28;20205;-80
2022/05/11 04:39:55;;;;;;;12.70;6.60;;;16.10;84.80;;;;;;4964020;28;20208;-79
2022/05/11 04:42:24;;;;;;;19.33;7.43;;;16.10;84.80;;;;;;4964321;28;20217;-79
2022/05/11 04:44:54;;;;;;;11.97;7.03;;;16.20;84.80;;;;;;4960609;28;20199;-80
2022/05/11 04:47:22;;;;;;;12.37;6.60;;;16.20;85.20;;;;;;4959206;28;20231;-80
2022/05/11 04:49:53;;;;;;;11.37;7.03;;;16.30;84.70;;;;;;4960656;28;20205;-79
2022/05/11 04:52:23;;;;;;;11.00;6.83;;;16.30;84.70;;;;;;4963503;28;20195;-79
2022/05/11 04:54:51;;;;;;;12.83;7.13;;;16.40;84.70;;;;;;4966522;28;20206;-80
2022/05/11 04:57:21;;;;;;;17.27;7.10;;;16.50;85.50;;;;;;4962836;28;20198;-79
2022/05/11 04:59:51;;;;;;;11.50;7.03;;;16.50;84.70;;;;;;4965327;28;20202;-79
2022/05/11 05:02:21;;;;;;;19.73;9.10;;;16.60;84.70;;;;;;4962875;28;20218;-80
2022/05/11 05:04:51;;;;;;;15.27;7.73;;;16.60;84.70;;;;;;4963278;28;20197;-80
2022/05/11 05:07:20;;;;;;;19.23;7.90;;;16.70;84.70;;;;;;4962915;28;20214;-80
2022/05/11 05:09:48;;;;;;;18.00;7.93;;;16.80;84.70;;;;;;4965129;28;20197;-79
2022/05/11 05:12:17;;;;;;;15.20;7.60;;;16.80;84.60;;;;;;4963916;28;20209;-81
2022/05/11 05:14:46;;;;;;;18.17;7.00;;;16.80;84.50;;;;;;4966488;28;20208;-79
2022/05/11 05:17:18;;;;;;;16.50;7.63;;;16.90;84.60;;;;;;4965521;28;20200;-79
2022/05/11 05:19:49;;;;;;;14.53;7.00;;;17.00;84.60;;;;;;4963660;28;20206;-79
2022/05/11 05:22:17;;;;;;;15.27;6.87;;;17.00;84.40;;;;;;4961612;28;20214;-79
2022/05/11 05:24:47;;;;;;;16.27;6.97;;;17.10;84.40;;;;;;4959754;28;20206;-80
2022/05/11 05:27:16;;;;;;;11.70;6.37;;;17.10;84.20;;;;;;4960692;28;20212;-79
2022/05/11 05:32:38;;;;;;;12.97;5.87;;;17.30;84.90;;;;;;4962825;28;20186;-78
2022/05/11 05:35:08;;;;;;;11.50;6.13;;;17.40;84.00;;;;;;4963882;28;20202;-78
2022/05/11 05:37:38;;;;;;;15.57;6.27;;;17.50;83.90;;;;;;4967101;28;20241;-79
2022/05/11 05:40:08;;;;;;;9.37;5.90;;;17.50;83.80;;;;;;4966773;28;20210;-78
2022/05/11 05:42:36;;;;;;;16.50;5.93;;;17.60;83.80;;;;;;4966902;28;20217;-79
2022/05/11 05:45:06;;;;;;;12.90;6.23;;;17.70;83.60;;;;;;4965676;28;20202;-77
2022/05/11 05:47:37;;;;;;;12.40;5.90;;;17.80;83.60;;;;;;4964835;28;20324;-77
2022/05/11 05:50:07;;;;;;;13.47;5.40;;;17.90;83.50;;;;;;4958279;28;20191;-81
2022/05/11 05:52:36;;;;;;;9.30;5.33;;;17.90;83.20;;;;;;4966919;28;20290;-79
2022/05/11 05:55:05;;;;;;;11.40;6.13;;;18.00;83.10;;;;;;4964529;28;20221;-79
2022/05/11 05:57:34;;;;;;;9.57;5.80;;;18.10;83.30;;;;;;4965144;28;20813;-79
2022/05/11 06:00:03;;;;;;;14.63;5.77;;;18.20;83.10;;;;;;4968020;28;20213;-79
2022/05/11 06:02:31;;;;;;;11.83;5.73;;;18.30;83.10;;;;;;4962829;28;20714;-79
2022/05/11 06:05:01;;;;;;;8.87;5.83;;;18.40;83.00;;;;;;4968852;28;20268;-79
2022/05/11 06:07:30;;;;;;;10.98;6.30;;;18.40;82.90;;;;;;4964592;28;20451;-78
2022/05/11 06:09:58;;;;;;;10.33;5.60;;;18.60;83.00;;;;;;4966762;28;20202;-77
2022/05/11 06:12:27;;;;;;;9.47;5.37;;;18.60;82.80;;;;;;4962450;28;20198;-79
2022/05/11 06:14:55;;;;;;;9.43;4.80;;;18.70;82.80;;;;;;4964777;28;20212;-79
2022/05/11 06:17:24;;;;;;;7.33;4.80;;;18.80;82.60;;;;;;4964664;28;20201;-78
2022/05/11 06:19:53;;;;;;;6.97;4.33;;;18.90;82.40;;;;;;4965355;28;20579;-77
2022/05/11 06:22:24;;;;;;;6.87;4.27;;;19.00;82.10;;;;;;4964215;28;20225;-78
2022/05/11 06:24:53;;;;;;;7.50;4.37;;;19.10;82.00;;;;;;4963443;28;20205;-76
2022/05/11 06:27:24;;;;;;;7.03;4.10;;;19.20;81.60;;;;;;4961736;28;20212;-78
2022/05/11 06:29:54;;;;;;;8.17;4.10;;;19.30;81.20;;;;;;4962008;28;20904;-77
2022/05/11 06:32:23;;;;;;;6.83;3.80;;;19.40;81.10;;;;;;4966405;28;20201;-80
2022/05/11 06:34:52;;;;;;;9.57;3.50;;;19.50;80.80;;;;;;4961617;28;20205;-81
2022/05/11 06:37:22;;;;;;;12.67;3.70;;;19.60;80.50;;;;;;4967565;28;20209;-79
2022/05/11 06:39:51;;;;;;;8.37;4.43;;;19.70;80.20;;;;;;4963406;28;20758;-79
2022/05/11 06:42:20;;;;;;;11.90;4.40;;;19.80;79.70;;;;;;4967102;28;20849;-77
2022/05/11 06:44:50;;;;;;;8.63;4.43;;;19.90;79.60;;;;;;4962413;28;20197;-77
2022/05/11 06:47:19;;;;;;;15.13;4.53;;;20.10;79.30;;;;;;4965511;28;20703;-77
2022/05/11 06:49:47;;;;;;;8.70;4.60;;;20.10;78.80;;;;;;4961970;28;20288;-78
2022/05/11 06:52:17;;;;;;;8.00;4.13;;;20.20;78.70;;;;;;4958178;28;20206;-78
2022/05/11 07:00:28;;;;;;;7.27;3.80;;;20.60;77.30;;;;;;4964607;28;20202;-80
2022/05/11 07:02:57;;;;;;;6.03;3.67;;;20.70;76.60;;;;;;4964436;28;20216;-75
2022/05/11 07:05:39;;;;;;;12.03;3.87;;;20.80;75.80;;;;;;4966679;28;20244;-78
2022/05/11 07:08:22;;;;;;;10.73;3.53;;;20.80;76.10;;;;;;4954245;28;20288;-79
2022/05/11 07:14:19;;;;;;;7.33;3.30;;;21.00;75.50;;;;;;4943175;28;20921;-80
2022/05/11 07:16:52;;;;;;;7.03;2.83;;;21.10;75.20;;;;;;4964530;28;20839;-79
2022/05/11 07:19:28;;;;;;;3.73;2.40;;;21.10;74.70;;;;;;4965180;28;20221;-81
2022/05/11 07:22:00;;;;;;;5.57;2.97;;;21.20;74.20;;;;;;4963172;28;20310;-80
2022/05/11 07:24:31;;;;;;;8.30;2.83;;;21.30;74.20;;;;;;4965225;28;20213;-80
2022/05/11 07:26:59;;;;;;;8.27;2.83;;;21.40;73.80;;;;;;4963852;28;20209;-83
2022/05/11 07:29:33;;;;;;;6.32;2.92;;;21.50;73.10;;;;;;4960862;28;20881;-79
2022/05/11 07:32:07;;;;;;;4.85;2.50;;;21.50;72.10;;;;;;4956469;28;20888;-79
2022/05/11 07:34:49;;;;;;;5.93;2.92;;;21.60;72.30;;;;;;4963822;28;20185;-79
2022/05/11 07:38:00;;;;;;;7.35;3.13;;;21.70;71.60;;;;;;4959546;28;20229;-83
2022/05/11 07:40:34;;;;;;;4.75;2.47;;;21.80;71.60;;;;;;4954764;28;20655;-80
2022/05/11 07:43:05;;;;;;;4.30;2.38;;;21.80;71.30;;;;;;4964054;28;20206;-82
2022/05/11 07:45:54;;;;;;;5.00;2.60;;;21.90;71.20;;;;;;4965024;28;20212;-82
2022/05/11 07:48:23;;;;;;;4.25;2.50;;;22.00;71.00;;;;;;4957167;28;20802;-77
2022/05/11 07:50:55;;;;;;;3.13;1.98;;;22.10;70.50;;;;;;4964663;28;20628;-79
2022/05/11 07:53:23;;;;;;;4.40;2.47;;;22.10;70.20;;;;;;4962790;28;20571;-78
2022/05/11 07:59:52;;;;;;;5.22;2.30;;;22.20;68.90;;;;;;4965033;28;20198;-79
2022/05/11 08:01:31;;;;;;;5.18;2.10;;;22.30;68.10;;;;;;4955208;28;20189;-81
2022/05/11 08:04:01;;;;;;;4.55;2.00;;;22.30;68.30;;;;;;4963318;28;20206;-80
2022/05/11 08:06:29;;;;;;;4.38;2.40;;;22.40;67.90;;;;;;4964180;28;20570;-79
2022/05/11 08:08:58;;;;;;;6.65;2.20;;;22.50;68.20;;;;;;4952046;28;20205;-78
2022/05/11 08:11:26;;;;;;;4.40;2.03;;;22.50;67.30;;;;;;4966131;28;20206;-79
2022/05/11 08:13:56;;;;;;;4.78;2.10;;;22.60;67.00;;;;;;4966959;28;20213;-79
2022/05/11 08:16:26;;;;;;;4.80;1.65;;;22.60;66.40;;;;;;4967109;28;20214;-79
2022/05/11 08:18:55;;;;;;;5.88;1.85;;;22.60;65.70;;;;;;4968736;28;20675;-78
2022/05/11 08:21:25;;;;;;;4.03;2.20;;;22.60;66.10;;;;;;4967552;28;20205;-81
2022/05/11 08:23:53;;;;;;;3.53;1.92;;;22.70;65.30;;;;;;4967384;28;20224;-80
2022/05/11 08:26:21;;;;;;;4.15;1.90;;;22.70;65.00;;;;;;4965965;28;20895;-78
2022/05/11 08:28:52;;;;;;;5.50;2.08;;;22.80;65.40;;;;;;4968937;28;20213;-78
2022/05/11 08:34:16;;;;;;;4.18;2.28;;;22.90;65.50;;;;;;4924945;28;20205;-78
2022/05/11 08:36:45;;;;;;;4.18;2.08;;;22.90;65.70;;;;;;4966949;28;20213;-80
2022/05/11 08:39:14;;;;;;;7.38;2.40;;;23.00;65.80;;;;;;4968157;28;20205;-78
2022/05/11 08:41:47;;;;;;;5.38;1.85;;;23.00;64.40;;;;;;4968745;28;20209;-77
2022/05/11 08:44:20;;;;;;;11.70;2.05;;;23.10;64.80;;;;;;4964929;28;20203;-78
2022/05/11 08:46:58;;;;;;;3.90;2.22;;;23.20;64.70;;;;;;4957114;28;20226;-78
2022/05/11 08:49:41;;;;;;;8.15;2.00;;;23.20;63.50;;;;;;4965382;28;20197;-78
2022/05/11 08:52:17;;;;;;;5.38;1.92;;;23.20;63.20;;;;;;4965613;28;20193;-78
2022/05/11 08:54:49;;;;;;;3.58;1.83;;;23.20;63.70;;;;;;4966434;28;20197;-78
2022/05/11 08:57:20;;;;;;;7.30;2.25;;;23.20;63.90;;;;;;4964012;28;20205;-78
2022/05/11 08:59:49;;;;;;;4.72;2.22;;;23.30;63.80;;;;;;4962539;28;20213;-80
2022/05/11 09:02:23;;;;;;;5.50;1.55;;;23.40;63.30;;;;;;4964436;28;20198;-80
2022/05/11 09:04:59;;;;;;;4.88;1.83;;;23.50;63.40;;;;;;4967435;28;20201;-79
2022/05/11 09:07:29;;;;;;;6.40;2.00;;;23.50;62.10;;;;;;4965834;28;20714;-78
2022/05/11 09:09:57;;;;;;;3.58;1.75;;;23.50;60.90;;;;;;4961286;28;20205;-80
2022/05/11 09:12:26;;;;;;;4.75;1.40;;;23.40;61.10;;;;;;4966072;28;20678;-79
2022/05/11 09:14:59;;;;;;;1.60;1.10;;;23.50;60.30;;;;;;4961786;28;20630;-78
2022/05/11 09:17:30;;;;;;;4.70;1.20;;;23.50;59.90;;;;;;4966395;28;20193;-78
2022/05/11 09:20:08;;;;;;;2.80;1.58;;;23.60;60.00;;;;;;4960098;28;20249;-77
2022/05/11 09:22:39;;;;;;;7.00;1.88;;;23.70;59.70;;;;;;4957990;28;20193;-79
2022/05/11 09:25:20;;;;;;;3.58;1.70;;;23.70;59.40;;;;;;4962878;28;20252;-77
2022/05/11 09:27:50;;;;;;;2.58;1.67;;;23.80;59.20;;;;;;4958394;28;20221;-80
2022/05/11 09:30:22;;;;;;;4.85;1.67;;;23.80;58.60;;;;;;4966758;28;20213;-79
2022/05/11 09:32:53;;;;;;;3.25;1.50;;;23.90;58.90;;;;;;4967836;28;20724;-79
2022/05/11 09:35:36;;;;;;;2.88;1.40;;;24.00;58.40;;;;;;4961258;28;20218;-79
2022/05/11 09:38:27;;;;;;;1.92;1.42;;;24.10;58.40;;;;;;4957008;28;20206;-79
2022/05/11 09:40:58;;;;;;;5.55;1.63;;;24.20;58.10;;;;;;4965796;28;20196;-79
2022/05/11 09:43:34;;;;;;;3.33;2.00;;;24.20;58.10;;;;;;4966679;28;20292;-78
2022/05/11 09:46:16;;;;;;;4.90;2.30;;;24.30;58.00;;;;;;4961492;28;20197;-78
2022/05/11 09:48:59;;;;;;;5.10;1.70;;;24.40;58.20;;;;;;4957424;28;20288;-76
2022/05/11 09:51:34;;;;;;;4.45;2.08;;;24.40;57.80;;;;;;4963572;28;20738;-76
2022/05/11 09:54:28;;;;;;;5.70;2.17;;;24.50;56.30;;;;;;4966159;28;20185;-77
2022/05/11 09:57:00;;;;;;;2.75;1.80;;;24.50;56.10;;;;;;4963580;28;20194;-77
2022/05/11 09:59:33;;;;;;;2.35;1.58;;;24.60;56.30;;;;;;4960533;28;20197;-78
2022/05/11 10:02:13;;;;;;;3.67;1.38;;;24.70;57.20;;;;;;4951502;28;20199;-78
2022/05/11 10:04:47;;;;;;;3.58;1.73;;;24.70;57.30;;;;;;4959240;28;20216;-77
2022/05/11 10:07:19;;;;;;;5.15;1.77;;;24.70;56.20;;;;;;4952824;28;20187;-78
2022/05/11 10:09:53;;;;;;;4.22;1.55;;;24.80;54.70;;;;;;4950095;28;20661;-77
2022/05/11 10:12:27;;;;;;;3.30;2.10;;;24.80;55.20;;;;;;4959726;28;20202;-78
2022/05/11 10:23:58;;;;;;;2.65;1.55;;;25.20;54.10;;;;;;4963925;28;20206;-76
2022/05/11 10:26:35;;;;;;;3.13;1.48;;;25.30;54.00;;;;;;4953325;28;20206;-77
2022/05/11 10:29:16;;;;;;;2.65;1.40;;;25.30;53.60;;;;;;4961026;28;20196;-77
2022/05/11 10:31:54;;;;;;;3.05;1.30;;;25.30;53.10;;;;;;4962482;28;20910;-77
2022/05/11 10:34:32;;;;;;;2.95;1.52;;;25.40;53.70;;;;;;4955796;28;20271;-78
2022/05/11 10:37:07;;;;;;;5.20;1.33;;;25.50;53.90;;;;;;4964191;28;20194;-77
2022/05/11 10:39:46;;;;;;;2.72;1.58;;;25.60;54.20;;;;;;4960339;28;20193;-78
2022/05/11 10:42:31;;;;;;;3.63;1.30;;;25.80;53.60;;;;;;4954590;28;20210;-78
2022/05/11 10:45:10;;;;;;;2.05;1.45;;;25.80;51.30;;;;;;4962235;28;20209;-78
2022/05/11 10:47:51;;;;;;;4.60;2.28;;;25.80;52.40;;;;;;4960960;28;20233;-76
2022/05/11 10:50:24;;;;;;;2.72;1.33;;;25.80;52.30;;;;;;4961512;28;20207;-77
2022/05/11 10:53:11;;;;;;;4.85;1.70;;;25.80;52.60;;;;;;4967952;28;20622;-77
2022/05/11 10:55:52;;;;;;;2.55;1.30;;;25.90;52.30;;;;;;4965737;28;20193;-78
2022/05/11 10:58:51;;;;;;;1.67;1.10;;;25.90;52.60;;;;;;4962905;28;20225;-77
2022/05/11 11:01:21;;;;;;;3.75;1.65;;;26.00;52.70;;;;;;4960505;28;20205;-78
2022/05/11 11:04:19;;;;;;;4.85;1.45;;;26.10;52.20;;;;;;4959216;28;20194;-77
2022/05/11 11:07:17;;;;;;;4.97;1.90;;;26.10;51.00;;;;;;4957611;28;20213;-80
2022/05/11 11:10:00;;;;;;;3.67;1.50;;;26.20;51.10;;;;;;4956683;28;20201;-77
2022/05/11 11:12:43;;;;;;;2.03;1.38;;;26.20;49.90;;;;;;4962121;28;20206;-78
2022/05/11 11:15:14;;;;;;;2.17;1.50;;;26.20;50.20;;;;;;4963280;28;20193;-78
2022/05/11 11:17:43;;;;;;;4.68;1.23;;;26.20;50.20;;;;;;4962747;28;20193;-78
2022/05/11 11:20:16;;;;;;;2.08;1.15;;;26.30;50.20;;;;;;4965919;28;20208;-81
2022/05/11 11:23:08;;;;;;;4.25;1.60;;;26.40;50.00;;;;;;4966522;28;20238;-78
2022/05/11 11:25:51;;;;;;;1.85;1.10;;;26.50;50.00;;;;;;4965244;28;20217;-77
2022/05/11 11:28:23;;;;;;;4.88;1.73;;;26.50;50.20;;;;;;4961727;28;20198;-76
2022/05/11 11:31:15;;;;;;;4.45;1.75;;;26.50;49.60;;;;;;4965821;28;20204;-78
2022/05/11 11:34:26;;;;;;;5.57;2.13;;;26.50;49.60;;;;;;4966052;28;20197;-75
2022/05/11 11:36:55;;;;;;;6.20;2.25;;;26.50;49.70;;;;;;4959771;28;20194;-79
2022/05/11 11:39:52;;;;;;;4.13;1.40;;;26.50;49.70;;;;;;4966800;28;20209;-78
2022/05/11 11:42:36;;;;;;;4.65;1.42;;;26.50;49.90;;;;;;4951214;28;20213;-77
2022/05/11 11:45:10;;;;;;;3.95;1.35;;;26.50;50.10;;;;;;4958050;28;20221;-77
2022/05/11 11:47:44;;;;;;;2.67;1.38;;;26.50;48.70;;;;;;4961348;28;20238;-77
2022/05/11 11:50:39;;;;;;;3.53;1.92;;;26.60;49.20;;;;;;4963460;28;20198;-76
2022/05/11 11:53:11;;;;;;;2.00;1.20;;;26.70;49.40;;;;;;4961899;28;20240;-79
2022/05/11 11:55:41;;;;;;;42.58;4.97;;;26.60;48.60;;;;;;4961065;28;20220;-77
2022/05/11 11:58:17;;;;;;;24.67;3.17;;;26.60;48.30;;;;;;4962870;28;20248;-77
2022/05/11 12:01:02;;;;;;;16.17;2.22;;;26.60;48.50;;;;;;4959813;28;20198;-77
2022/05/11 12:03:35;;;;;;;16.50;2.30;;;26.60;48.50;;;;;;4963920;28;20205;-78
2022/05/11 12:17:33;;;;;;;5.00;1.50;;;26.80;48.30;;;;;;4959547;28;20217;-78
2022/05/11 12:20:09;;;;;;;3.63;1.40;;;26.70;48.10;;;;;;4961718;28;20209;-77
2022/05/11 12:22:41;;;;;;;4.97;1.80;;;26.70;48.60;;;;;;4959376;28;20205;-77
2022/05/11 12:25:24;;;;;;;3.53;1.33;;;26.70;48.90;;;;;;4953141;28;20206;-78
2022/05/11 12:27:53;;;;;;;2.75;1.42;;;26.70;48.90;;;;;;4962025;28;20201;-79
2022/05/11 12:30:26;;;;;;;3.38;1.70;;;26.70;48.80;;;;;;4959798;28;20201;-78
2022/05/11 12:32:58;;;;;;;5.60;1.35;;;26.70;48.90;;;;;;4962757;28;20198;-78
2022/05/11 12:35:33;;;;;;;3.00;1.40;;;26.80;48.60;;;;;;4960915;28;20201;-77
2022/05/11 12:38:04;;;;;;;4.32;1.55;;;26.90;47.70;;;;;;4965106;28;20209;-79
2022/05/11 12:40:35;;;;;;;4.05;1.42;;;27.00;47.70;;;;;;4962697;28;20190;-76
2022/05/11 12:43:10;;;;;;;4.63;1.40;;;27.00;46.90;;;;;;4956042;28;20603;-77
2022/05/11 12:45:42;;;;;;;2.45;1.40;;;27.10;47.10;;;;;;4962014;28;20210;-78
2022/05/11 12:48:18;;;;;;;1.70;1.05;;;27.10;47.00;;;;;;4959195;28;20601;-76
2022/05/11 12:50:53;;;;;;;2.80;1.15;;;27.10;46.40;;;;;;4961683;28;20205;-77
2022/05/11 12:53:26;;;;;;;4.57;1.27;;;27.20;46.90;;;;;;4965983;28;20201;-77
2022/05/11 12:56:07;;;;;;;4.30;1.48;;;27.30;47.10;;;;;;4961867;28;20187;-78
2022/05/11 12:58:36;;;;;;;1.90;1.25;;;27.40;46.60;;;;;;4963379;28;20198;-77
2022/05/11 13:01:06;;;;;;;2.30;1.60;;;27.50;47.10;;;;;;4967549;28;20205;-75
2022/05/11 13:03:38;;;;;;;5.25;1.38;;;27.60;46.50;;;;;;4965944;28;20190;-77
2022/05/11 13:06:13;;;;;;;2.33;1.33;;;27.70;46.50;;;;;;4962712;28;20242;-77
2022/05/11 13:08:45;;;;;;;2.28;1.40;;;27.80;45.80;;;;;;4956185;28;20276;-76
2022/05/11 13:11:16;;;;;;;4.32;1.08;;;28.00;46.30;;;;;;4967924;28;20214;-78
2022/05/11 13:13:47;;;;;;;2.80;1.13;;;28.00;45.30;;;;;;4963122;28;20644;-77
2022/05/11 13:16:19;;;;;;;3.30;1.05;;;28.10;44.60;;;;;;4962016;28;20214;-77
2022/05/11 13:18:49;;;;;;;5.10;1.30;;;28.40;45.60;;;;;;4960364;28;20205;-79
2022/05/11 13:21:29;;;;;;;5.40;1.13;;;28.70;44.90;;;;;;4960989;28;20813;-78
2022/05/11 13:23:58;;;;;;;2.28;1.10;;;28.90;44.60;;;;;;4960144;28;20712;-78
2022/05/11 13:26:40;;;;;;;1.60;1.00;;;28.80;44.40;;;;;;4963955;28;20617;-77
2022/05/11 13:29:19;;;;;;;3.92;1.10;;;28.90;44.20;;;;;;4965586;28;20924;-77
2022/05/11 13:32:03;;;;;;;3.85;1.27;;;28.90;43.90;;;;;;4964733;28;20199;-79
2022/05/11 13:34:35;;;;;;;4.38;1.33;;;28.90;43.50;;;;;;4961725;28;20965;-78
2022/05/11 13:37:05;;;;;;;3.05;1.10;;;28.90;42.80;;;;;;4954726;28;20237;-77
2022/05/11 13:39:36;;;;;;;2.97;1.10;;;28.90;43.00;;;;;;4960644;28;20198;-80
2022/05/11 13:42:17;;;;;;;4.10;1.25;;;29.00;43.30;;;;;;4963644;28;20989;-79
2022/05/11 13:44:52;;;;;;;6.10;1.67;;;29.00;42.70;;;;;;4963664;28;20221;-78
2022/05/11 13:50:33;;;;;;;2.03;1.20;;;28.90;42.90;;;;;;4952582;28;20565;-79
2022/05/11 13:53:05;;;;;;;3.22;1.20;;;28.80;43.00;;;;;;4961383;28;20707;-79
2022/05/11 13:55:36;;;;;;;2.65;1.10;;;28.80;42.70;;;;;;4958267;28;20205;-77
2022/05/11 13:58:25;;;;;;;3.92;1.20;;;28.70;42.50;;;;;;4952694;28;20191;-78
2022/05/11 14:00:56;;;;;;;4.28;0.98;;;28.60;42.40;;;;;;4962123;28;20197;-77